createdAt,value
2019-03-28T00:00:36.273Z,11.80
2019-03-28T00:01:36.261Z,10.40
2019-03-28T00:02:37.001Z,12.80
2019-03-28T00:03:36.245Z,12.10
2019-03-28T00:04:36.236Z,11.90
2019-03-28T00:05:36.222Z,10.90
2019-03-28T00:06:36.220Z,11.30
2019-03-28T00:07:36.203Z,11.50
2019-03-28T00:08:36.215Z,11.70
2019-03-28T00:09:36.194Z,11.90
2019-03-28T00:10:36.172Z,12.30
2019-03-28T00:11:36.153Z,10.90
2019-03-28T00:12:36.146Z,11.60
2019-03-28T00:13:36.149Z,12.70
2019-03-28T00:14:36.124Z,12.20
2019-03-28T00:15:36.121Z,12.10
2019-03-28T00:16:36.111Z,10.60
2019-03-28T00:17:36.125Z,11.00
2019-03-28T00:18:36.103Z,11.10
2019-03-28T00:19:36.088Z,11.30
2019-03-28T00:20:36.066Z,12.50
2019-03-28T00:21:36.057Z,12.70
2019-03-28T00:22:36.054Z,11.00
2019-03-28T00:23:36.061Z,11.20
2019-03-28T00:24:36.023Z,11.30
2019-03-28T00:25:36.005Z,11.90
2019-03-28T00:26:35.996Z,13.10
2019-03-28T00:27:35.991Z,11.80
2019-03-28T00:28:36.103Z,11.20
2019-03-28T00:29:35.998Z,12.90
2019-03-28T00:30:35.961Z,11.30
2019-03-28T00:31:35.951Z,12.30
2019-03-28T00:32:35.960Z,12.10
2019-03-28T00:33:35.927Z,11.90
2019-03-28T00:34:35.932Z,12.70
2019-03-28T00:35:35.910Z,12.80
2019-03-28T00:36:35.898Z,12.00
2019-03-28T00:37:35.880Z,12.40
2019-03-28T00:38:35.870Z,12.40
2019-03-28T00:39:35.886Z,13.30
2019-03-28T00:40:35.857Z,12.50
2019-03-28T00:41:35.878Z,12.50
2019-03-28T00:42:35.851Z,12.60
2019-03-28T00:43:35.820Z,10.90
2019-03-28T00:44:35.850Z,13.60
2019-03-28T00:45:35.810Z,13.10
2019-03-28T00:46:35.786Z,13.00
2019-03-28T00:47:36.213Z,12.30
2019-03-28T00:48:35.774Z,12.30
2019-03-28T00:49:35.762Z,13.60
2019-03-28T00:50:35.779Z,12.70
2019-03-28T00:51:35.736Z,12.60
2019-03-28T00:52:35.724Z,12.60
2019-03-28T00:53:35.729Z,13.50
2019-03-28T00:54:35.711Z,13.40
2019-03-28T00:55:35.711Z,12.90
2019-03-28T00:56:46.362Z,12.80
2019-03-28T00:57:36.673Z,12.20
2019-03-28T00:58:35.663Z,12.70
2019-03-28T00:59:35.661Z,12.40
2019-03-28T01:00:35.667Z,12.40
2019-03-28T01:01:35.661Z,12.50
2019-03-28T01:02:35.623Z,13.30
2019-03-28T01:03:36.365Z,11.50
2019-03-28T01:04:35.596Z,12.90
2019-03-28T01:05:35.586Z,11.40
2019-03-28T01:06:35.617Z,13.30
2019-03-28T01:07:35.572Z,13.10
2019-03-28T01:08:35.563Z,12.00
2019-03-28T01:09:35.553Z,13.30
2019-03-28T01:10:35.534Z,15.00
2019-03-28T01:11:35.542Z,13.70
2019-03-28T01:12:35.554Z,13.00
2019-03-28T01:13:35.514Z,12.80
2019-03-28T01:14:35.500Z,12.10
2019-03-28T01:15:35.483Z,13.00
2019-03-28T01:16:35.468Z,12.50
2019-03-28T01:17:35.479Z,11.70
2019-03-28T01:18:35.451Z,11.40
2019-03-28T01:19:35.451Z,12.60
2019-03-28T01:20:35.439Z,13.40
2019-03-28T01:21:35.425Z,13.10
2019-03-28T01:22:35.451Z,12.60
2019-03-28T01:23:35.399Z,12.00
2019-03-28T01:24:36.181Z,12.60
2019-03-28T01:25:35.386Z,13.90
2019-03-28T01:26:35.380Z,13.80
2019-03-28T01:27:35.384Z,14.50
2019-03-28T01:28:35.347Z,12.20
2019-03-28T01:29:35.344Z,13.00
2019-03-28T01:30:35.322Z,12.70
2019-03-28T01:31:35.338Z,13.10
2019-03-28T01:32:35.340Z,12.70
2019-03-28T01:33:35.336Z,13.70
2019-03-28T01:34:35.293Z,11.50
2019-03-28T01:35:35.270Z,13.10
2019-03-28T01:36:35.263Z,13.00
2019-03-28T01:37:35.256Z,12.10
2019-03-28T01:38:35.249Z,12.70
2019-03-28T01:39:35.422Z,12.40
2019-03-28T01:40:35.231Z,11.80
2019-03-28T01:41:35.225Z,13.40
2019-03-28T01:42:35.219Z,13.50
2019-03-28T01:43:35.200Z,12.30
2019-03-28T01:44:35.193Z,12.80
2019-03-28T01:45:35.174Z,12.90
2019-03-28T01:46:35.160Z,12.90
2019-03-28T01:47:35.174Z,10.90
2019-03-28T01:48:35.153Z,12.00
2019-03-28T01:49:35.122Z,11.90
2019-03-28T01:50:35.114Z,11.30
2019-03-28T01:51:35.109Z,11.80
2019-03-28T01:52:35.107Z,11.70
2019-03-28T01:53:35.117Z,11.00
2019-03-28T01:54:35.083Z,12.90
2019-03-28T01:55:35.068Z,12.60
2019-03-28T01:56:35.051Z,12.70
2019-03-28T01:57:35.046Z,12.30
2019-03-28T01:58:35.056Z,12.90
2019-03-28T01:59:35.069Z,13.10
2019-03-28T02:00:35.009Z,13.90
2019-03-28T02:01:35.017Z,12.10
2019-03-28T02:02:34.993Z,12.00
2019-03-28T02:03:35.027Z,13.70
2019-03-28T02:04:34.978Z,12.30
2019-03-28T02:05:34.974Z,12.90
2019-03-28T02:06:34.953Z,12.50
2019-03-28T02:07:34.936Z,14.20
2019-03-28T02:08:34.928Z,14.30
2019-03-28T02:09:34.957Z,15.70
2019-03-28T02:10:34.916Z,14.80
2019-03-28T02:11:34.901Z,14.10
2019-03-28T02:12:34.895Z,14.10
2019-03-28T02:13:34.876Z,14.10
2019-03-28T02:14:34.865Z,14.40
2019-03-28T02:15:34.876Z,17.00
2019-03-28T02:16:34.858Z,14.80
2019-03-28T02:17:34.864Z,15.50
2019-03-28T02:18:34.827Z,15.60
2019-03-28T02:19:34.834Z,16.00
2019-03-28T02:20:34.817Z,15.70
2019-03-28T02:21:34.789Z,15.40
2019-03-28T02:22:34.778Z,15.00
2019-03-28T02:23:34.791Z,16.90
2019-03-28T02:24:34.770Z,17.70
2019-03-28T02:25:34.775Z,15.80
2019-03-28T02:26:34.746Z,16.20
2019-03-28T02:27:34.724Z,15.90
2019-03-28T02:28:34.715Z,16.20
2019-03-28T02:29:34.710Z,17.90
2019-03-28T02:30:34.721Z,16.50
2019-03-28T02:31:34.709Z,17.20
2019-03-28T02:32:34.672Z,16.60
2019-03-28T02:33:34.682Z,16.80
2019-03-28T02:34:34.652Z,17.40
2019-03-28T02:35:34.648Z,17.70
2019-03-28T02:36:34.656Z,18.00
2019-03-28T02:37:34.627Z,18.20
2019-03-28T02:38:34.642Z,18.40
2019-03-28T02:39:34.608Z,17.60
2019-03-28T02:40:34.592Z,16.90
2019-03-28T02:41:34.990Z,18.20
2019-03-28T02:42:34.592Z,17.70
2019-03-28T02:43:34.568Z,20.20
2019-03-28T02:44:34.558Z,18.70
2019-03-28T02:45:34.548Z,19.20
2019-03-28T02:46:34.553Z,18.70
2019-03-28T02:47:35.744Z,19.80
2019-03-28T02:48:34.520Z,18.50
2019-03-28T02:49:34.502Z,20.00
2019-03-28T02:50:34.488Z,18.70
2019-03-28T02:51:34.478Z,18.80
2019-03-28T02:52:34.495Z,17.70
2019-03-28T02:53:34.451Z,20.10
2019-03-28T02:54:34.445Z,19.70
2019-03-28T02:55:34.437Z,22.00
2019-03-28T02:56:34.426Z,18.20
2019-03-28T02:57:41.684Z,20.00
2019-03-28T02:58:36.739Z,20.70
2019-03-28T02:59:34.388Z,19.50
2019-03-28T03:00:34.386Z,19.80
2019-03-28T03:01:34.382Z,19.30
2019-03-28T03:02:34.367Z,18.30
2019-03-28T03:03:34.369Z,19.50
2019-03-28T03:04:34.340Z,19.60
2019-03-28T03:05:34.325Z,18.00
2019-03-28T03:06:41.914Z,18.70
2019-03-28T03:07:34.342Z,20.80
2019-03-28T03:08:34.308Z,17.60
2019-03-28T03:09:34.286Z,19.60
2019-03-28T03:10:34.271Z,19.70
2019-03-28T03:11:34.261Z,19.80
2019-03-28T03:12:34.268Z,19.40
2019-03-28T03:13:34.273Z,19.90
2019-03-28T03:14:34.234Z,21.10
2019-03-28T03:15:34.220Z,19.50
2019-03-28T03:16:34.218Z,20.20
2019-03-28T03:17:34.224Z,21.10
2019-03-28T03:18:34.213Z,19.80
2019-03-28T03:19:34.184Z,21.00
2019-03-28T03:20:34.176Z,20.40
2019-03-28T03:21:34.157Z,19.60
2019-03-28T03:22:34.146Z,21.10
2019-03-28T03:23:34.156Z,20.80
2019-03-28T03:24:34.124Z,22.50
2019-03-28T03:25:34.122Z,22.50
2019-03-28T03:26:34.112Z,21.70
2019-03-28T03:27:34.144Z,20.40
2019-03-28T03:28:34.100Z,22.10
2019-03-28T03:29:34.077Z,18.50
2019-03-28T03:30:34.069Z,20.50
2019-03-28T03:31:34.079Z,20.10
2019-03-28T03:32:34.070Z,18.80
2019-03-28T03:33:34.061Z,19.70
2019-03-28T03:34:34.020Z,20.40
2019-03-28T03:35:34.012Z,19.40
2019-03-28T03:36:34.000Z,18.40
2019-03-28T03:37:34.002Z,16.90
2019-03-28T03:38:34.004Z,17.10
2019-03-28T03:39:33.987Z,17.60
2019-03-28T03:40:33.981Z,19.70
2019-03-28T03:41:33.956Z,18.90
2019-03-28T03:42:33.935Z,19.30
2019-03-28T03:43:33.921Z,17.80
2019-03-28T03:44:33.933Z,18.30
2019-03-28T03:45:33.910Z,20.10
2019-03-28T03:46:33.904Z,18.30
2019-03-28T03:47:33.881Z,19.80
2019-03-28T03:48:33.873Z,22.00
2019-03-28T03:49:33.892Z,20.90
2019-03-28T03:50:33.874Z,20.90
2019-03-28T03:51:33.858Z,20.10
2019-03-28T03:52:33.855Z,20.60
2019-03-28T03:53:33.824Z,20.40
2019-03-28T03:54:33.808Z,20.60
2019-03-28T03:55:33.822Z,18.40
2019-03-28T03:56:33.795Z,18.00
2019-03-28T03:57:33.782Z,21.40
2019-03-28T03:58:33.775Z,19.80
2019-03-28T03:59:33.763Z,18.50
2019-03-28T04:00:33.781Z,18.10
2019-03-28T04:01:33.744Z,17.60
2019-03-28T04:02:33.722Z,22.30
2019-03-28T04:03:33.722Z,18.50
2019-03-28T04:04:33.706Z,18.20
2019-03-28T04:05:33.741Z,18.70
2019-03-28T04:06:33.688Z,19.10
2019-03-28T04:07:33.673Z,20.70
2019-03-28T04:08:33.663Z,21.70
2019-03-28T04:09:33.658Z,19.80
2019-03-28T04:10:33.651Z,19.30
2019-03-28T04:11:33.676Z,18.80
2019-03-28T04:12:33.634Z,18.70
2019-03-28T04:13:33.608Z,19.10
2019-03-28T04:14:33.601Z,18.30
2019-03-28T04:15:33.589Z,16.90
2019-03-28T04:16:33.575Z,17.00
2019-03-28T04:17:33.955Z,16.80
2019-03-28T04:18:33.568Z,17.80
2019-03-28T04:19:33.551Z,17.60
2019-03-28T04:20:33.568Z,18.60
2019-03-28T04:21:33.533Z,17.20
2019-03-28T04:22:33.550Z,17.50
2019-03-28T04:23:33.519Z,17.70
2019-03-28T04:24:33.515Z,16.30
2019-03-28T04:25:33.481Z,17.40
2019-03-28T04:26:33.468Z,16.40
2019-03-28T04:27:33.478Z,17.50
2019-03-28T04:28:33.448Z,16.50
2019-03-28T04:29:33.448Z,15.00
2019-03-28T04:30:33.433Z,16.90
2019-03-28T04:31:33.439Z,16.50
2019-03-28T04:32:33.432Z,16.40
2019-03-28T04:33:33.396Z,16.30
2019-03-28T04:34:33.390Z,14.50
2019-03-28T04:35:33.391Z,15.10
2019-03-28T04:36:33.377Z,15.80
2019-03-28T04:37:33.380Z,15.70
2019-03-28T04:38:33.375Z,15.70
2019-03-28T04:39:33.335Z,15.40
2019-03-28T04:40:34.439Z,15.60
2019-03-28T04:41:33.317Z,16.90
2019-03-28T04:42:33.330Z,16.30
2019-03-28T04:43:33.300Z,14.90
2019-03-28T04:44:33.285Z,16.00
2019-03-28T04:45:33.271Z,17.30
2019-03-28T04:46:33.265Z,18.20
2019-03-28T04:47:33.274Z,16.00
2019-03-28T04:48:33.237Z,16.20
2019-03-28T04:49:33.235Z,16.30
2019-03-28T04:50:33.223Z,15.60
2019-03-28T04:51:33.203Z,15.30
2019-03-28T04:52:33.215Z,15.70
2019-03-28T04:53:33.201Z,15.90
2019-03-28T04:54:33.198Z,16.00
2019-03-28T04:55:33.181Z,15.30
2019-03-28T04:56:33.159Z,16.50
2019-03-28T04:57:33.172Z,16.20
2019-03-28T04:58:43.724Z,15.50
2019-03-28T04:59:34.119Z,14.20
2019-03-28T05:00:33.401Z,13.90
2019-03-28T05:01:33.119Z,14.80
2019-03-28T05:02:33.093Z,15.80
2019-03-28T05:03:33.121Z,15.50
2019-03-28T05:04:33.078Z,15.90
2019-03-28T05:05:33.067Z,16.70
2019-03-28T05:06:33.055Z,16.40
2019-03-28T05:07:33.043Z,17.40
2019-03-28T05:08:33.464Z,15.60
2019-03-28T05:09:33.019Z,15.50
2019-03-28T05:10:33.281Z,15.30
2019-03-28T05:11:33.392Z,15.50
2019-03-28T05:12:32.984Z,14.60
2019-03-28T05:13:32.980Z,15.10
2019-03-28T05:14:33.008Z,15.50
2019-03-28T05:15:32.958Z,14.40
2019-03-28T05:16:32.946Z,14.20
2019-03-28T05:17:32.927Z,14.60
2019-03-28T05:18:32.941Z,14.60
2019-03-28T05:19:32.944Z,14.30
2019-03-28T05:20:32.900Z,16.00
2019-03-28T05:21:32.897Z,14.50
2019-03-28T05:22:32.890Z,15.50
2019-03-28T05:23:32.868Z,15.40
2019-03-28T05:24:32.860Z,15.20
2019-03-28T05:25:32.874Z,14.10
2019-03-28T05:26:32.847Z,14.00
2019-03-28T05:27:33.456Z,15.10
2019-03-28T05:28:32.822Z,15.90
2019-03-28T05:29:32.809Z,15.30
2019-03-28T05:30:32.827Z,14.30
2019-03-28T05:31:32.784Z,13.40
2019-03-28T05:32:32.772Z,15.70
2019-03-28T05:33:32.769Z,15.30
2019-03-28T05:34:32.765Z,13.90
2019-03-28T05:35:32.766Z,13.60
2019-03-28T05:36:32.737Z,13.80
2019-03-28T05:37:32.719Z,12.80
2019-03-28T05:38:32.716Z,13.50
2019-03-28T05:39:32.706Z,15.10
2019-03-28T05:40:32.717Z,14.60
2019-03-28T05:41:32.676Z,14.70
2019-03-28T05:42:32.684Z,16.80
2019-03-28T05:43:32.666Z,16.00
2019-03-28T05:44:32.646Z,14.40
2019-03-28T05:45:32.639Z,14.90
2019-03-28T05:46:32.647Z,14.20
2019-03-28T05:47:32.647Z,14.60
2019-03-28T05:48:32.608Z,14.40
2019-03-28T05:49:32.592Z,15.10
2019-03-28T05:50:32.586Z,16.90
2019-03-28T05:51:32.573Z,15.40
2019-03-28T05:52:32.564Z,15.10
2019-03-28T05:53:32.582Z,14.00
2019-03-28T05:54:32.545Z,14.60
2019-03-28T05:55:32.527Z,17.40
2019-03-28T05:56:32.520Z,15.60
2019-03-28T05:57:32.523Z,15.30
2019-03-28T05:58:32.527Z,14.00
2019-03-28T05:59:32.491Z,14.50
2019-03-28T06:00:32.479Z,13.20
2019-03-28T06:01:32.610Z,13.60
2019-03-28T06:02:32.459Z,14.20
2019-03-28T06:03:32.468Z,14.20
2019-03-28T06:04:32.438Z,14.60
2019-03-28T06:05:32.427Z,14.00
2019-03-28T06:06:32.416Z,13.20
2019-03-28T06:07:32.408Z,15.50
2019-03-28T06:08:32.420Z,14.20
2019-03-28T06:09:32.383Z,13.80
2019-03-28T06:10:32.369Z,14.80
2019-03-28T06:11:32.367Z,15.70
2019-03-28T06:12:32.354Z,13.40
2019-03-28T06:13:32.354Z,14.20
2019-03-28T06:14:32.327Z,12.90
2019-03-28T06:15:32.350Z,13.40
2019-03-28T06:16:32.311Z,12.90
2019-03-28T06:17:32.299Z,11.70
2019-03-28T06:18:32.303Z,14.10
2019-03-28T06:19:32.291Z,13.20
2019-03-28T06:20:32.269Z,13.60
2019-03-28T06:21:32.265Z,11.70
2019-03-28T06:22:32.245Z,11.70
2019-03-28T06:23:32.230Z,12.20
2019-03-28T06:24:32.287Z,13.50
2019-03-28T06:25:32.230Z,14.20
2019-03-28T06:26:32.204Z,13.30
2019-03-28T06:27:32.214Z,10.90
2019-03-28T06:28:32.178Z,11.60
2019-03-28T06:29:32.192Z,13.00
2019-03-28T06:30:32.219Z,13.20
2019-03-28T06:31:32.154Z,13.10
2019-03-28T06:32:42.194Z,11.50
2019-03-28T06:33:33.177Z,15.00
2019-03-28T06:34:32.125Z,13.70
2019-03-28T06:35:32.107Z,12.30
2019-03-28T06:36:32.122Z,13.80
2019-03-28T06:37:32.490Z,13.10
2019-03-28T06:38:32.086Z,14.50
2019-03-28T06:39:32.090Z,12.70
2019-03-28T06:40:32.057Z,14.10
2019-03-28T06:41:32.108Z,13.00
2019-03-28T06:42:32.034Z,13.10
2019-03-28T06:43:32.036Z,12.40
2019-03-28T06:44:32.023Z,11.40
2019-03-28T06:45:32.033Z,12.10
2019-03-28T06:46:32.038Z,13.20
2019-03-28T06:47:32.009Z,12.00
2019-03-28T06:48:31.996Z,14.30
2019-03-28T06:49:32.467Z,12.80
2019-03-28T06:50:31.963Z,11.40
2019-03-28T06:51:31.972Z,12.80
2019-03-28T06:52:31.932Z,11.60
2019-03-28T06:53:31.971Z,11.30
2019-03-28T06:54:31.941Z,12.10
2019-03-28T06:55:31.925Z,11.60
2019-03-28T06:56:31.943Z,13.50
2019-03-28T06:57:31.883Z,12.10
2019-03-28T06:58:31.871Z,13.80
2019-03-28T06:59:37.723Z,13.40
2019-03-28T07:00:32.848Z,12.50
2019-03-28T07:01:31.858Z,12.40
2019-03-28T07:02:31.824Z,12.20
2019-03-28T07:03:31.812Z,11.90
2019-03-28T07:04:31.803Z,11.80
2019-03-28T07:05:31.797Z,11.90
2019-03-28T07:06:31.790Z,11.30
2019-03-28T07:07:32.333Z,12.90
2019-03-28T07:08:31.782Z,12.20
2019-03-28T07:09:31.748Z,12.70
2019-03-28T07:10:31.735Z,11.30
2019-03-28T07:11:31.753Z,12.00
2019-03-28T07:12:31.746Z,12.60
2019-03-28T07:13:31.713Z,12.40
2019-03-28T07:14:31.697Z,12.90
2019-03-28T07:15:31.681Z,13.10
2019-03-28T07:16:31.671Z,12.70
2019-03-28T07:17:31.692Z,10.50
2019-03-28T07:18:31.692Z,13.10
2019-03-28T07:19:31.663Z,11.80
2019-03-28T07:20:31.640Z,11.30
2019-03-28T07:21:31.675Z,13.50
2019-03-28T07:22:31.622Z,12.20
2019-03-28T07:23:31.635Z,12.70
2019-03-28T07:24:31.595Z,12.90
2019-03-28T07:25:31.616Z,14.10
2019-03-28T07:26:31.609Z,12.90
2019-03-28T07:27:31.567Z,12.50
2019-03-28T07:28:31.555Z,13.30
2019-03-28T07:29:31.571Z,12.30
2019-03-28T07:30:31.532Z,12.30
2019-03-28T07:31:31.523Z,11.20
2019-03-28T07:32:31.576Z,12.20
2019-03-28T07:33:31.502Z,12.90
2019-03-28T07:34:31.519Z,12.10
2019-03-28T07:35:31.473Z,13.80
2019-03-28T07:36:31.486Z,13.30
2019-03-28T07:37:31.458Z,12.60
2019-03-28T07:38:31.461Z,12.40
2019-03-28T07:39:31.463Z,13.40
2019-03-28T07:40:33.461Z,13.40
2019-03-28T07:41:31.464Z,13.90
2019-03-28T07:42:31.432Z,13.00
2019-03-28T07:43:31.388Z,14.90
2019-03-28T07:44:31.426Z,14.40
2019-03-28T07:45:34.272Z,12.80
2019-03-28T07:46:31.365Z,13.60
2019-03-28T07:47:31.432Z,12.30
2019-03-28T07:48:31.334Z,12.80
2019-03-28T07:49:31.332Z,13.00
2019-03-28T07:50:33.437Z,13.10
2019-03-28T07:51:31.312Z,11.70
2019-03-28T07:52:31.302Z,13.70
2019-03-28T07:53:31.313Z,13.20
2019-03-28T07:54:31.308Z,14.10
2019-03-28T07:55:31.654Z,13.60
2019-03-28T07:56:31.246Z,14.50
2019-03-28T07:57:31.245Z,13.20
2019-03-28T07:58:31.244Z,15.30
2019-03-28T07:59:31.229Z,17.10
2019-03-28T08:00:31.240Z,14.40
2019-03-28T08:01:31.199Z,14.50
2019-03-28T08:02:31.197Z,13.70
2019-03-28T08:03:31.181Z,14.80
2019-03-28T08:04:31.177Z,14.60
2019-03-28T08:05:31.232Z,14.10
2019-03-28T08:06:31.168Z,13.40
2019-03-28T08:07:43.993Z,13.90
2019-03-28T08:08:38.808Z,14.50
2019-03-28T08:09:36.733Z,14.10
2019-03-28T08:10:31.165Z,14.30
2019-03-28T08:11:31.291Z,15.50
2019-03-28T08:12:31.106Z,15.10
2019-03-28T08:13:31.078Z,12.60
2019-03-28T08:14:31.065Z,11.20
2019-03-28T08:15:31.070Z,12.80
2019-03-28T08:16:31.041Z,13.80
2019-03-28T08:17:31.036Z,13.20
2019-03-28T08:18:31.022Z,13.40
2019-03-28T08:19:31.110Z,13.80
2019-03-28T08:20:31.019Z,13.70
2019-03-28T08:21:30.997Z,11.20
2019-03-28T08:22:30.997Z,12.60
2019-03-28T08:23:30.971Z,12.90
2019-03-28T08:24:30.958Z,14.40
2019-03-28T08:25:30.967Z,13.60
2019-03-28T08:26:30.930Z,13.70
2019-03-28T08:27:30.922Z,10.30
2019-03-28T08:28:30.907Z,13.90
2019-03-28T08:29:30.904Z,12.60
2019-03-28T08:30:30.909Z,14.30
2019-03-28T08:31:30.882Z,12.40
2019-03-28T08:32:30.868Z,12.70
2019-03-28T08:33:30.881Z,12.40
2019-03-28T08:34:31.404Z,12.40
2019-03-28T08:35:30.835Z,10.60
2019-03-28T08:36:30.826Z,12.60
2019-03-28T08:37:30.834Z,11.70
2019-03-28T08:38:30.799Z,13.30
2019-03-28T08:39:30.805Z,13.10
2019-03-28T08:40:30.782Z,14.30
2019-03-28T08:41:30.773Z,13.40
2019-03-28T08:42:30.783Z,13.00
2019-03-28T08:43:30.752Z,11.50
2019-03-28T08:44:30.751Z,12.10
2019-03-28T08:45:30.721Z,12.30
2019-03-28T08:46:30.717Z,11.30
2019-03-28T08:47:30.721Z,11.30
2019-03-28T08:48:30.693Z,11.50
2019-03-28T08:49:30.692Z,10.10
2019-03-28T08:50:30.681Z,11.60
2019-03-28T08:51:30.676Z,13.10
2019-03-28T08:52:30.665Z,12.40
2019-03-28T08:53:30.660Z,10.90
2019-03-28T08:54:30.635Z,11.00
2019-03-28T08:55:30.623Z,10.60
2019-03-28T08:56:30.611Z,11.90
2019-03-28T08:57:30.596Z,10.80
2019-03-28T08:58:30.605Z,10.10
2019-03-28T08:59:30.580Z,10.60
2019-03-28T09:00:34.968Z,10.10
2019-03-28T09:01:31.567Z,12.60
2019-03-28T09:02:30.558Z,11.80
2019-03-28T09:03:30.558Z,11.20
2019-03-28T09:04:30.529Z,11.10
2019-03-28T09:05:30.515Z,11.50
2019-03-28T09:06:30.504Z,12.10
2019-03-28T09:07:30.496Z,10.30
2019-03-28T09:08:30.520Z,10.50
2019-03-28T09:09:30.467Z,10.50
2019-03-28T09:10:30.460Z,10.10
2019-03-28T09:11:30.447Z,9.90
2019-03-28T09:12:30.439Z,10.00
2019-03-28T09:13:30.432Z,9.10
2019-03-28T09:14:32.062Z,10.70
2019-03-28T09:15:43.118Z,10.40
2019-03-28T09:16:31.399Z,9.30
2019-03-28T09:17:30.381Z,9.80
2019-03-28T09:18:30.375Z,9.70
2019-03-28T09:19:30.389Z,8.70
2019-03-28T09:20:30.349Z,10.60
2019-03-28T09:21:30.344Z,10.20
2019-03-28T09:22:30.334Z,9.40
2019-03-28T09:23:30.319Z,10.00
2019-03-28T09:24:30.317Z,9.20
2019-03-28T09:25:30.352Z,11.40
2019-03-28T09:26:30.291Z,10.80
2019-03-28T09:27:30.284Z,10.80
2019-03-28T09:28:30.271Z,12.20
2019-03-28T09:29:30.287Z,10.80
2019-03-28T09:30:30.241Z,10.50
2019-03-28T09:31:30.229Z,11.40
2019-03-28T09:32:30.219Z,10.30
2019-03-28T09:33:30.219Z,11.70
2019-03-28T09:34:30.203Z,10.60
2019-03-28T09:35:30.246Z,10.20
2019-03-28T09:36:30.205Z,11.30
2019-03-28T09:37:30.166Z,10.30
2019-03-28T09:38:30.156Z,13.20
2019-03-28T09:39:30.158Z,12.30
2019-03-28T09:40:30.166Z,11.80
2019-03-28T09:41:30.125Z,11.90
2019-03-28T09:42:30.114Z,12.40
2019-03-28T09:43:30.102Z,11.90
2019-03-28T09:44:30.307Z,10.70
2019-03-28T09:45:30.300Z,10.90
2019-03-28T09:46:30.097Z,11.30
2019-03-28T09:47:30.390Z,10.90
2019-03-28T09:48:30.060Z,10.90
2019-03-28T09:49:30.040Z,10.20
2019-03-28T09:50:30.027Z,10.80
2019-03-28T09:51:30.046Z,11.30
2019-03-28T09:52:30.006Z,10.50
2019-03-28T09:53:30.056Z,12.80
2019-03-28T09:54:29.991Z,11.80
2019-03-28T09:55:29.974Z,10.60
2019-03-28T09:56:29.974Z,12.10
2019-03-28T09:57:29.980Z,10.40
2019-03-28T09:58:29.951Z,10.20
2019-03-28T09:59:29.944Z,11.10
2019-03-28T10:00:32.606Z,11.50
2019-03-28T10:01:29.955Z,11.60
2019-03-28T10:02:29.906Z,13.00
2019-03-28T10:03:29.891Z,11.10
2019-03-28T10:04:29.891Z,11.40
2019-03-28T10:05:29.873Z,12.60
2019-03-28T10:06:29.866Z,11.60
2019-03-28T10:07:29.871Z,12.00
2019-03-28T10:08:29.849Z,11.70
2019-03-28T10:09:29.824Z,13.20
2019-03-28T10:10:29.816Z,12.30
2019-03-28T10:11:29.811Z,13.30
2019-03-28T10:12:29.829Z,10.80
2019-03-28T10:13:29.791Z,11.50
2019-03-28T10:14:29.786Z,11.20
2019-03-28T10:15:29.763Z,13.10
2019-03-28T10:16:29.760Z,11.00
2019-03-28T10:17:29.777Z,11.90
2019-03-28T10:18:30.263Z,11.30
2019-03-28T10:19:29.728Z,11.60
2019-03-28T10:20:29.724Z,11.40
2019-03-28T10:21:29.700Z,11.10
2019-03-28T10:22:29.703Z,11.70
2019-03-28T10:23:29.701Z,11.20
2019-03-28T10:24:29.684Z,12.60
2019-03-28T10:25:29.662Z,12.90
2019-03-28T10:26:29.662Z,10.30
2019-03-28T10:27:29.637Z,11.90
2019-03-28T10:28:29.656Z,11.20
2019-03-28T10:29:29.620Z,11.40
2019-03-28T10:30:29.610Z,12.30
2019-03-28T10:31:29.600Z,10.00
2019-03-28T10:32:29.587Z,11.20
2019-03-28T10:33:29.571Z,10.70
2019-03-28T10:34:29.593Z,10.00
2019-03-28T10:35:29.553Z,10.40
2019-03-28T10:36:29.547Z,11.50
2019-03-28T10:37:29.536Z,10.80
2019-03-28T10:38:29.540Z,10.60
2019-03-28T10:39:29.535Z,12.20
2019-03-28T10:40:29.564Z,10.30
2019-03-28T10:41:29.489Z,10.80
2019-03-28T10:42:29.485Z,10.40
2019-03-28T10:43:29.472Z,11.10
2019-03-28T10:44:29.518Z,9.80
2019-03-28T10:45:29.448Z,9.70
2019-03-28T10:46:29.466Z,10.80
2019-03-28T10:47:29.422Z,10.10
2019-03-28T10:48:29.414Z,10.30
2019-03-28T10:49:29.427Z,11.50
2019-03-28T10:50:40.270Z,9.70
2019-03-28T10:51:30.389Z,9.30
2019-03-28T10:52:29.398Z,10.20
2019-03-28T10:53:30.259Z,11.10
2019-03-28T10:54:29.347Z,10.50
2019-03-28T10:55:29.366Z,11.20
2019-03-28T10:56:29.338Z,10.30
2019-03-28T10:57:30.470Z,9.50
2019-03-28T10:58:29.343Z,9.60
2019-03-28T10:59:29.331Z,10.00
2019-03-28T11:00:29.307Z,10.00
2019-03-28T11:01:46.931Z,12.10
2019-03-28T11:02:30.273Z,9.40
2019-03-28T11:03:29.300Z,12.10
2019-03-28T11:04:29.255Z,10.40
2019-03-28T11:05:29.263Z,9.20
2019-03-28T11:06:29.241Z,10.20
2019-03-28T11:07:29.245Z,10.40
2019-03-28T11:08:29.209Z,9.60
2019-03-28T11:09:29.209Z,10.10
2019-03-28T11:10:30.706Z,9.00
2019-03-28T11:11:29.201Z,9.90
2019-03-28T11:12:29.177Z,10.30
2019-03-28T11:13:29.151Z,10.90
2019-03-28T11:14:29.149Z,9.00
2019-03-28T11:15:29.191Z,8.80
2019-03-28T11:16:29.487Z,9.90
2019-03-28T11:17:29.108Z,10.70
2019-03-28T11:18:29.133Z,9.20
2019-03-28T11:19:29.092Z,9.50
2019-03-28T11:20:29.117Z,10.50
2019-03-28T11:21:29.077Z,9.20
2019-03-28T11:22:29.080Z,11.10
2019-03-28T11:23:29.046Z,9.90
2019-03-28T11:24:29.035Z,10.00
2019-03-28T11:25:29.037Z,9.00
2019-03-28T11:26:29.008Z,9.20
2019-03-28T11:27:29.007Z,10.20
2019-03-28T11:28:28.984Z,9.50
2019-03-28T11:29:28.983Z,8.70
2019-03-28T11:30:29.053Z,9.50
2019-03-28T11:31:28.956Z,8.80
2019-03-28T11:32:28.939Z,10.50
2019-03-28T11:33:28.945Z,9.80
2019-03-28T11:34:28.927Z,8.40
2019-03-28T11:35:28.934Z,7.00
2019-03-28T11:36:28.904Z,8.30
2019-03-28T11:37:28.890Z,9.60
2019-03-28T11:38:29.063Z,8.10
2019-03-28T11:39:28.886Z,9.00
2019-03-28T11:40:28.915Z,8.80
2019-03-28T11:41:28.852Z,8.20
2019-03-28T11:42:28.867Z,8.40
2019-03-28T11:43:28.835Z,8.40
2019-03-28T11:44:28.818Z,9.20
2019-03-28T11:45:28.877Z,8.10
2019-03-28T11:46:28.793Z,8.30
2019-03-28T11:47:28.815Z,9.10
2019-03-28T11:48:28.862Z,8.40
2019-03-28T11:49:28.759Z,6.90
2019-03-28T11:50:28.763Z,8.30
2019-03-28T11:51:28.747Z,8.30
2019-03-28T11:52:28.730Z,8.10
2019-03-28T11:53:28.743Z,7.00
2019-03-28T11:54:28.732Z,8.20
2019-03-28T11:55:28.700Z,8.60
2019-03-28T11:56:28.699Z,8.80
2019-03-28T11:57:28.672Z,8.00
2019-03-28T11:58:28.687Z,8.30
2019-03-28T11:59:28.655Z,8.00
2019-03-28T12:00:29.535Z,8.70
2019-03-28T12:01:28.663Z,8.70
2019-03-28T12:02:28.629Z,8.40
2019-03-28T12:03:28.640Z,8.70
2019-03-28T12:04:28.669Z,9.50
2019-03-28T12:05:28.601Z,8.90
2019-03-28T12:06:28.599Z,9.00
2019-03-28T12:07:28.602Z,8.70
2019-03-28T12:08:28.589Z,8.20
2019-03-28T12:09:28.546Z,7.90
2019-03-28T12:10:28.540Z,9.70
2019-03-28T12:11:28.537Z,8.70
2019-03-28T12:12:28.516Z,9.00
2019-03-28T12:13:28.536Z,8.80
2019-03-28T12:14:28.521Z,9.50
2019-03-28T12:15:28.496Z,9.30
2019-03-28T12:16:28.480Z,9.90
2019-03-28T12:17:28.562Z,9.60
2019-03-28T12:18:28.455Z,10.00
2019-03-28T12:19:29.051Z,9.10
2019-03-28T12:20:28.450Z,8.90
2019-03-28T12:21:28.428Z,9.20
2019-03-28T12:22:28.424Z,11.10
2019-03-28T12:23:28.425Z,9.90
2019-03-28T12:24:28.444Z,9.70
2019-03-28T12:25:28.389Z,9.60
2019-03-28T12:26:28.376Z,10.00
2019-03-28T12:27:28.519Z,11.70
2019-03-28T12:28:28.357Z,9.80
2019-03-28T12:29:28.373Z,12.10
2019-03-28T12:30:28.335Z,11.30
2019-03-28T12:31:28.316Z,12.00
2019-03-28T12:32:28.313Z,10.60
2019-03-28T12:33:28.317Z,10.70
2019-03-28T12:34:28.287Z,11.60
2019-03-28T12:35:28.291Z,11.60
2019-03-28T12:36:28.265Z,11.70
2019-03-28T12:37:28.254Z,10.30
2019-03-28T12:38:28.736Z,11.00
2019-03-28T12:39:28.316Z,11.20
2019-03-28T12:40:28.228Z,10.10
2019-03-28T12:41:28.208Z,10.80
2019-03-28T12:42:28.193Z,11.10
2019-03-28T12:43:28.187Z,11.00
2019-03-28T12:44:28.197Z,10.50
2019-03-28T12:45:28.219Z,11.50
2019-03-28T12:46:28.182Z,10.20
2019-03-28T12:47:41.252Z,9.70
2019-03-28T12:48:29.139Z,11.40
2019-03-28T12:49:28.121Z,11.20
2019-03-28T12:50:28.154Z,10.30
2019-03-28T12:51:28.109Z,9.80
2019-03-28T12:52:29.819Z,9.30
2019-03-28T12:53:28.078Z,9.80
2019-03-28T12:54:28.597Z,9.50
2019-03-28T12:55:28.058Z,8.80